createdAt,value
2019-03-30T00:00:55.094Z,8.50
2019-03-30T00:03:31.814Z,8.50
2019-03-30T00:06:09.848Z,8.50
2019-03-30T00:08:55.059Z,8.50
2019-03-30T00:14:36.828Z,8.60
2019-03-30T00:17:14.043Z,8.60
2019-03-30T00:19:52.159Z,8.50
2019-03-30T00:22:27.179Z,8.50
2019-03-30T00:25:02.971Z,8.50
2019-03-30T00:27:49.987Z,8.40
2019-03-30T00:35:55.233Z,8.40
2019-03-30T00:37:19.181Z,8.30
2019-03-30T00:42:27.945Z,8.20
2019-03-30T00:44:56.804Z,8.20
2019-03-30T00:50:30.553Z,8.10
2019-03-30T00:53:02.438Z,8.10
2019-03-30T00:55:36.725Z,8.10
2019-03-30T00:58:08.261Z,8.00
2019-03-30T01:00:43.016Z,8.00
2019-03-30T01:03:21.381Z,8.00
2019-03-30T01:05:59.251Z,8.00
2019-03-30T01:08:35.998Z,7.90
2019-03-30T01:11:13.708Z,7.90
2019-03-30T01:13:55.420Z,7.90
2019-03-30T01:19:20.457Z,7.80
2019-03-30T01:21:58.926Z,7.80
2019-03-30T01:24:42.770Z,7.80
2019-03-30T01:27:14.836Z,7.70
2019-03-30T01:29:54.846Z,7.70
2019-03-30T01:32:29.458Z,7.70
2019-03-30T01:35:09.008Z,7.70
2019-03-30T01:37:45.680Z,7.70
2019-03-30T01:40:32.568Z,7.70
2019-03-30T01:43:11.378Z,7.60
2019-03-30T01:51:55.431Z,7.50
2019-03-30T01:54:38.085Z,7.50
2019-03-30T01:57:12.368Z,7.50
2019-03-30T02:15:10.566Z,7.40
2019-03-30T02:17:58.157Z,7.30
2019-03-30T02:20:33.783Z,7.30
2019-03-30T02:23:09.032Z,7.30
2019-03-30T02:25:51.553Z,7.30
2019-03-30T02:28:27.807Z,7.20
2019-03-30T02:34:13.424Z,7.20
2019-03-30T02:40:04.861Z,7.30
2019-03-30T02:42:41.397Z,7.20
2019-03-30T02:46:40.809Z,7.20
2019-03-30T02:48:36.902Z,7.20
2019-03-30T02:54:11.639Z,7.10
2019-03-30T02:56:43.553Z,7.10
2019-03-30T02:59:17.942Z,7.10
2019-03-30T03:01:52.181Z,7.00
2019-03-30T03:04:26.538Z,7.00
2019-03-30T03:06:59.961Z,7.00
2019-03-30T03:09:36.359Z,7.00
2019-03-30T03:12:12.946Z,6.90
2019-03-30T03:18:01.478Z,6.90
2019-03-30T03:20:39.441Z,6.80
2019-03-30T03:23:19.147Z,6.80
2019-03-30T03:25:57.978Z,6.80
2019-03-30T03:28:31.108Z,6.70
2019-03-30T03:31:15.539Z,6.70
2019-03-30T03:33:47.002Z,6.70
2019-03-30T03:36:20.625Z,6.60
2019-03-30T03:38:58.990Z,6.60
2019-03-30T03:41:32.971Z,6.50
2019-03-30T03:44:06.772Z,6.50
2019-03-30T03:49:32.961Z,6.40
2019-03-30T03:52:23.380Z,6.40
2019-03-30T03:55:31.669Z,6.40
2019-03-30T03:57:56.267Z,6.30
2019-03-30T04:00:48.878Z,6.30
2019-03-30T04:06:35.559Z,6.20
2019-03-30T04:12:25.879Z,6.10
2019-03-30T04:15:09.769Z,6.10
2019-03-30T04:17:47.188Z,6.10
2019-03-30T04:20:23.129Z,6.00
2019-03-30T04:24:12.419Z,6.10
2019-03-30T04:26:37.197Z,6.00
2019-03-30T04:28:34.875Z,6.00
2019-03-30T04:31:15.115Z,6.00
2019-03-30T04:33:48.953Z,6.00
2019-03-30T04:36:27.387Z,6.00
2019-03-30T04:39:07.339Z,6.00
2019-03-30T04:41:42.892Z,6.00
2019-03-30T04:44:13.352Z,6.00
2019-03-30T04:46:45.969Z,6.00
2019-03-30T04:49:23.750Z,5.90
2019-03-30T04:52:01.354Z,5.90
2019-03-30T04:56:13.599Z,5.90
2019-03-30T05:00:41.066Z,5.90
2019-03-30T05:06:08.563Z,5.90
2019-03-30T05:08:48.659Z,5.90
2019-03-30T05:11:27.492Z,5.90
2019-03-30T05:14:02.783Z,5.90
2019-03-30T05:16:44.236Z,6.00
2019-03-30T05:19:21.556Z,6.00
2019-03-30T05:21:55.086Z,6.00
2019-03-30T05:24:34.574Z,6.00
2019-03-30T05:29:58.722Z,6.00
2019-03-30T05:32:41.485Z,6.10
2019-03-30T05:35:44.886Z,6.10
2019-03-30T05:38:21.896Z,6.20
2019-03-30T05:40:53.726Z,6.20
2019-03-30T05:43:30.113Z,6.30
2019-03-30T05:51:53.493Z,6.50
2019-03-30T05:54:30.003Z,6.60
2019-03-30T06:03:26.029Z,6.80
2019-03-30T06:09:15.618Z,7.00
2019-03-30T06:11:53.960Z,7.20
2019-03-30T06:14:41.198Z,7.20
2019-03-30T06:17:22.954Z,7.30
2019-03-30T06:20:01.016Z,7.40
2019-03-30T06:22:40.267Z,7.60
2019-03-30T06:25:10.829Z,7.70
2019-03-30T06:27:49.336Z,7.80
2019-03-30T06:30:26.571Z,8.00
2019-03-30T06:33:00.319Z,8.20
2019-03-30T06:35:41.331Z,8.60
2019-03-30T06:38:14.305Z,9.10
2019-03-30T06:40:57.844Z,9.80
2019-03-30T06:43:31.628Z,10.50
2019-03-30T06:46:25.881Z,11.10
2019-03-30T06:54:29.942Z,12.30
2019-03-30T07:00:21.234Z,13.00
2019-03-30T07:03:04.750Z,13.20
2019-03-30T07:05:42.242Z,13.50
2019-03-30T07:08:22.905Z,13.80
2019-03-30T07:11:02.667Z,14.10
2019-03-30T07:13:35.595Z,14.40
2019-03-30T07:16:15.729Z,14.40
2019-03-30T07:18:51.868Z,14.60
2019-03-30T07:21:29.167Z,14.90
2019-03-30T07:24:10.951Z,15.10
2019-03-30T07:26:42.695Z,15.40
2019-03-30T07:29:21.100Z,15.40
2019-03-30T07:34:46.748Z,15.70
2019-03-30T07:40:25.073Z,15.90
2019-03-30T07:43:21.027Z,16.00
2019-03-30T07:46:56.359Z,16.00
2019-03-30T07:51:58.510Z,16.00
2019-03-30T07:54:41.066Z,15.80
2019-03-30T07:57:16.816Z,15.50
2019-03-30T07:59:46.087Z,15.30
2019-03-30T08:02:20.809Z,15.10
2019-03-30T08:04:58.964Z,15.00
2019-03-30T08:07:34.333Z,14.90
2019-03-30T08:10:08.847Z,14.90
2019-03-30T08:12:43.019Z,14.80
2019-03-30T08:15:15.815Z,14.90
2019-03-30T08:17:56.197Z,15.00
2019-03-30T08:20:27.236Z,15.20
2019-03-30T08:23:19.306Z,15.40
2019-03-30T08:25:52.885Z,15.60
2019-03-30T08:28:24.324Z,16.00
2019-03-30T08:31:02.873Z,16.30
2019-03-30T08:33:47.438Z,16.60
2019-03-30T08:36:20.586Z,17.00
2019-03-30T08:39:27.563Z,17.20
2019-03-30T08:42:19.453Z,17.40
2019-03-30T08:45:01.881Z,17.60
2019-03-30T08:47:34.491Z,17.70
2019-03-30T08:53:03.647Z,17.50
2019-03-30T08:55:38.905Z,17.40
2019-03-30T08:58:22.933Z,17.60
2019-03-30T09:00:52.529Z,17.50
2019-03-30T09:03:26.761Z,17.60
2019-03-30T09:06:03.141Z,17.50
2019-03-30T09:08:38.261Z,17.80
2019-03-30T09:11:14.040Z,17.90
2019-03-30T09:29:20.252Z,18.10
2019-03-30T09:31:57.853Z,18.10
2019-03-30T09:40:46.318Z,18.20
2019-03-30T09:43:25.890Z,17.80
2019-03-30T09:49:18.758Z,16.80
2019-03-30T09:52:12.472Z,16.90
2019-03-30T09:54:53.654Z,17.20
2019-03-30T09:57:35.678Z,16.90
2019-03-30T10:00:36.896Z,16.70
2019-03-30T10:06:13.447Z,17.20
2019-03-30T10:08:48.250Z,17.90
2019-03-30T10:11:19.733Z,18.10
2019-03-30T10:13:58.885Z,17.90
2019-03-30T10:16:32.690Z,18.00
2019-03-30T10:19:05.308Z,18.10
2019-03-30T10:21:45.571Z,18.60
2019-03-30T10:27:10.138Z,19.00
2019-03-30T10:29:43.591Z,19.50
2019-03-30T10:32:24.419Z,19.80
2019-03-30T10:34:55.115Z,19.50
2019-03-30T10:37:26.742Z,19.50
2019-03-30T10:39:56.580Z,18.60
2019-03-30T10:42:27.624Z,18.40
2019-03-30T10:44:57.459Z,18.60
2019-03-30T10:47:40.664Z,18.60
2019-03-30T10:53:10.912Z,19.10
2019-03-30T10:55:52.878Z,18.80
2019-03-30T10:58:30.645Z,18.70
2019-03-30T11:01:00.419Z,18.80
2019-03-30T11:03:47.295Z,18.80
2019-03-30T11:06:25.101Z,19.00
2019-03-30T11:08:56.659Z,19.40
2019-03-30T11:11:27.457Z,19.50
2019-03-30T11:13:59.703Z,19.70
2019-03-30T11:16:29.507Z,20.10
2019-03-30T11:19:02.270Z,20.20
2019-03-30T11:21:33.381Z,20.30
2019-03-30T11:24:06.546Z,20.70
2019-03-30T11:26:42.235Z,21.00
2019-03-30T11:29:47.113Z,21.10
2019-03-30T11:32:11.395Z,21.30
2019-03-30T11:34:50.490Z,21.60
2019-03-30T11:37:22.273Z,21.70
2019-03-30T11:39:53.447Z,21.70
2019-03-30T11:42:32.378Z,22.00
2019-03-30T11:45:10.933Z,22.20
2019-03-30T11:47:46.891Z,21.70
2019-03-30T11:50:19.432Z,21.60
2019-03-30T11:52:52.412Z,22.20
2019-03-30T11:55:24.533Z,22.60
2019-03-30T11:57:58.912Z,22.70
2019-03-30T12:00:32.646Z,23.10
2019-03-30T12:03:25.300Z,23.50
2019-03-30T12:06:11.553Z,23.50
2019-03-30T12:10:28.734Z,23.70
2019-03-30T12:14:23.165Z,24.10
2019-03-30T12:16:58.507Z,23.60
2019-03-30T12:19:48.435Z,23.10
2019-03-30T12:22:22.905Z,23.30
2019-03-30T12:24:54.934Z,24.00
2019-03-30T12:27:28.062Z,24.50
2019-03-30T12:30:02.662Z,25.10
2019-03-30T12:32:35.898Z,25.50
2019-03-30T12:35:07.566Z,25.80
2019-03-30T12:37:40.937Z,26.00
2019-03-30T12:40:13.114Z,26.10
2019-03-30T12:42:45.991Z,26.20
2019-03-30T12:45:21.492Z,26.20
2019-03-30T12:48:20.093Z,26.30
2019-03-30T12:50:40.769Z,25.70
2019-03-30T12:53:15.353Z,25.30
2019-03-30T12:56:01.381Z,24.90
2019-03-30T12:58:41.429Z,25.30
2019-03-30T13:01:15.729Z,25.40
2019-03-30T13:03:51.678Z,25.80
2019-03-30T13:06:28.870Z,26.30
2019-03-30T13:09:11.567Z,26.70
2019-03-30T13:11:51.498Z,27.00
2019-03-30T13:14:24.977Z,26.40
2019-03-30T13:16:55.255Z,26.10
2019-03-30T13:19:29.540Z,25.90
2019-03-30T13:22:04.823Z,25.60
2019-03-30T13:24:35.894Z,25.60
2019-03-30T13:27:12.937Z,25.60
2019-03-30T13:29:45.369Z,24.80
2019-03-30T13:32:15.241Z,24.80
2019-03-30T13:34:47.202Z,25.00
2019-03-30T13:37:20.133Z,25.30
2019-03-30T13:39:56.219Z,25.90
2019-03-30T13:42:39.055Z,26.40
2019-03-30T13:45:15.130Z,26.70
2019-03-30T13:47:50.115Z,26.90
2019-03-30T13:50:25.639Z,27.00
2019-03-30T13:53:01.608Z,27.30
2019-03-30T13:55:35.640Z,27.40
2019-03-30T13:58:10.883Z,27.30
2019-03-30T14:03:43.077Z,27.70
2019-03-30T14:06:31.064Z,27.70
2019-03-30T14:09:03.416Z,27.70
2019-03-30T14:11:36.559Z,27.10
2019-03-30T14:14:08.225Z,26.90
2019-03-30T14:16:55.939Z,27.00
2019-03-30T14:19:38.047Z,27.00
2019-03-30T14:22:14.094Z,26.70
2019-03-30T14:24:48.066Z,26.50
2019-03-30T14:27:31.750Z,26.40
2019-03-30T14:30:17.542Z,26.30
2019-03-30T14:32:54.601Z,26.20
2019-03-30T14:35:31.198Z,26.00
2019-03-30T14:38:03.288Z,25.80
2019-03-30T14:43:32.120Z,25.40
2019-03-30T14:46:10.107Z,25.30
2019-03-30T14:48:49.920Z,25.30
2019-03-30T14:51:33.035Z,25.10
2019-03-30T14:54:26.969Z,25.00
2019-03-30T14:57:12.610Z,25.00
2019-03-30T14:59:52.362Z,24.70
2019-03-30T15:03:40.070Z,24.10
2019-03-30T15:05:49.910Z,23.90
2019-03-30T15:08:25.595Z,23.60
2019-03-30T15:11:05.214Z,23.00
2019-03-30T15:16:52.984Z,22.60
2019-03-30T15:25:51.560Z,22.30
2019-03-30T15:28:34.906Z,22.30
2019-03-30T15:40:19.767Z,22.50
2019-03-30T15:42:53.496Z,22.20
2019-03-30T15:45:26.694Z,21.80
2019-03-30T15:48:05.201Z,21.40
2019-03-30T15:50:38.272Z,21.30
2019-03-30T15:56:09.815Z,21.30
2019-03-30T15:58:57.869Z,21.20
2019-03-30T16:04:26.047Z,20.90
2019-03-30T16:07:01.810Z,20.90
2019-03-30T16:09:41.720Z,20.70
2019-03-30T16:12:13.255Z,20.10
2019-03-30T16:14:49.559Z,19.50
2019-03-30T16:17:36.241Z,19.00
2019-03-30T16:20:48.274Z,18.60
2019-03-30T16:26:25.512Z,17.70
2019-03-30T16:29:04.149Z,17.40
2019-03-30T16:31:41.803Z,17.20
2019-03-30T16:34:17.261Z,17.10
2019-03-30T16:39:45.547Z,16.90
2019-03-30T16:42:22.657Z,16.90
2019-03-30T16:45:01.939Z,16.80
2019-03-30T16:47:34.620Z,16.70
2019-03-30T16:50:31.446Z,16.60
2019-03-30T16:53:11.097Z,16.50
2019-03-30T16:55:51.958Z,16.40
2019-03-30T17:01:22.654Z,16.20
2019-03-30T17:07:00.814Z,15.90
2019-03-30T17:09:37.659Z,15.80
2019-03-30T17:12:23.144Z,15.70
2019-03-30T17:15:03.089Z,15.60
2019-03-30T17:24:05.424Z,15.30
2019-03-30T17:26:52.365Z,15.10
2019-03-30T17:29:25.244Z,15.10
2019-03-30T17:31:58.622Z,15.00
2019-03-30T17:34:32.521Z,14.90
2019-03-30T17:37:06.728Z,14.90
2019-03-30T17:39:41.696Z,14.80
2019-03-30T17:42:21.352Z,14.80
2019-03-30T17:44:55.984Z,14.70
2019-03-30T17:47:32.112Z,14.60
2019-03-30T17:50:13.060Z,14.50
2019-03-30T17:52:50.443Z,14.40
2019-03-30T17:55:33.532Z,14.40
2019-03-30T17:58:11.932Z,14.30
2019-03-30T18:00:31.267Z,14.20
2019-03-30T18:03:08.030Z,14.10
2019-03-30T18:05:40.761Z,14.10
2019-03-30T18:08:17.917Z,14.00
2019-03-30T18:11:04.020Z,14.00
2019-03-30T18:13:44.716Z,13.90
2019-03-30T18:16:22.406Z,13.80
2019-03-30T18:18:55.974Z,13.80
2019-03-30T18:21:31.618Z,13.70
2019-03-30T18:24:03.671Z,13.70
2019-03-30T18:26:41.078Z,13.60
2019-03-30T18:29:19.065Z,13.60
2019-03-30T18:31:57.605Z,13.60
2019-03-30T18:34:31.046Z,13.50
2019-03-30T18:37:15.772Z,13.50
2019-03-30T18:39:46.484Z,13.40
2019-03-30T18:42:19.169Z,13.40
2019-03-30T18:44:56.396Z,13.40
2019-03-30T18:47:27.915Z,13.30
2019-03-30T18:49:59.603Z,13.30
2019-03-30T18:52:31.174Z,13.30
2019-03-30T18:55:03.527Z,13.30
2019-03-30T18:57:40.986Z,13.30
2019-03-30T19:00:24.566Z,13.30
2019-03-30T19:05:53.078Z,13.00
2019-03-30T19:08:25.122Z,12.80
2019-03-30T19:10:56.287Z,12.60
2019-03-30T19:13:36.033Z,12.40
2019-03-30T19:16:07.220Z,12.30
2019-03-30T19:18:57.292Z,12.20
2019-03-30T19:21:32.806Z,12.20
2019-03-30T19:24:23.381Z,12.10
2019-03-30T19:26:57.224Z,12.00
2019-03-30T19:29:30.567Z,11.90
2019-03-30T19:32:04.048Z,11.90
2019-03-30T19:34:40.820Z,11.80
2019-03-30T19:37:11.088Z,11.80
2019-03-30T19:39:45.606Z,11.70
2019-03-30T19:42:23.249Z,11.70
2019-03-30T19:45:12.064Z,11.60
2019-03-30T19:47:51.376Z,11.50
2019-03-30T19:50:22.357Z,11.40
2019-03-30T19:52:55.308Z,11.30
2019-03-30T19:55:30.857Z,11.30
2019-03-30T20:17:35.458Z,10.90
2019-03-30T20:20:17.908Z,10.80
2019-03-30T20:25:45.600Z,10.80
2019-03-30T20:31:26.379Z,10.70
2019-03-30T20:37:10.939Z,10.60
2019-03-30T20:40:05.779Z,10.50
2019-03-30T20:46:04.572Z,10.50
2019-03-30T20:48:43.888Z,10.40
2019-03-30T20:54:16.592Z,10.30
2019-03-30T20:56:55.419Z,10.30
2019-03-30T20:59:39.772Z,10.30
2019-03-30T21:23:50.946Z,10.30
2019-03-30T21:26:28.757Z,10.30
2019-03-30T21:29:10.071Z,10.30
2019-03-30T21:31:49.134Z,10.30
2019-03-30T21:34:27.411Z,10.20
2019-03-30T21:40:16.288Z,10.20
2019-03-30T21:46:07.386Z,10.10
2019-03-30T21:48:53.930Z,10.10
2019-03-30T21:51:33.744Z,10.10
2019-03-30T21:54:19.613Z,10.10
